Search for airport 
image banner adimage banner adimage banner ad
image banner ad

9PS5 - Reading Hospital

Located in West Reading, United States

ICAO - 9PS5, IATA -

Data provided by Airmate  

General information

Coordinates: N40°19'47" W75°56'59"
Elevation is 320 feet MSL.
Magnetic variation is -11° East
View others Airports in Pennsylvania

Operational data

Special qualification required
Current time UTC:
Current local time:
METAR: KRDG 182254Z 25006KT 10SM CLR 26/06 A3023 RMK AO2 SLP241 T02610061
TAF: KRDG 181732Z 1818/1918 26006KT P6SM SKC FM190200 VRB03KT P6SM SKC
View NOTAMs / SUP AIP / TFR affecting this airport [VIEW]
Communications frequencies: [VIEW]

Runways:

Airport contact information

Address: West Reading United States

Satellite view of 9PS5